Terminal Aerodrome Forecast
Issued by NWS Sterling, VA

Home | Current Version | Previous Version | Text Only | Print | Product List | Glossary On
Versions: 1 2 3 4 5 6 7 8 9 10 11 12 13 14 15 16 17 18 19 20
000
FTUS41 KLWX 242300 RRA
TAFMRB
TAF
KMRB 242344Z 2500/2524 02004KT P6SM FEW250
     FM251200 34005KT P6SM SCT100
     FM252000 19004KT P6SM SCT120=

USA.gov is the U.S. government's official web portal to all federal, state and local government web resources and services.